Time;durP1;ratioP1;P1;durP2;ratioP2;P2;SDS_P1;SDS_P2;PMS_P1;PMS_P2;Temp;Humidity;BMP_temperature;BMP_pressure;BME280_temperature;BME280_humidity;BME280_pressure;Samples;Min_cycle;Max_cycle;Signal;HPM_P1;HPM_P2
2021/06/01 00:01:40;;;;;;;;;;;;;;;10.02;52.71;101257.17;1710230;83;20598;-75
2021/06/01 00:04:08;;;;;;;;;;;;;;;9.99;52.74;101256.31;1706312;83;20261;-75
2021/06/01 00:06:34;;;;;;;;;;;;;;;9.95;52.86;101260.20;1693938;83;20201;-75
2021/06/01 00:09:00;;;;;;;;;;;;;;;9.92;52.88;101266.67;1720128;81;20207;-75
2021/06/01 00:11:28;;;;;;;;;;;;;;;9.87;53.00;101263.27;1721122;82;20637;-75
2021/06/01 00:13:54;;;;;;;;;;;;;;;9.81;53.10;101262.42;1716044;83;20187;-75
2021/06/01 00:16:20;;;;;;;;;;;;;;;9.79;53.22;101265.02;1715401;82;20911;-75
2021/06/01 00:18:46;;;;;;;;;;;;;;;9.75;53.26;101266.31;1716530;83;20909;-75
2021/06/01 00:21:13;;;;;;;;;;;;;;;9.64;53.02;101259.88;1715768;81;20185;-75
2021/06/01 00:23:39;;;;;;;;;;;;;;;9.55;53.22;101262.47;1697069;83;20581;-75
2021/06/01 00:26:07;;;;;;;;;;;;;;;9.43;53.25;101261.19;1720577;82;20753;-75
2021/06/01 00:28:34;;;;;;;;;;;;;;;9.35;53.51;101259.94;1724394;83;20162;-75
2021/06/01 00:31:00;;;;;;;;;;;;;;;9.34;53.61;101262.52;1707402;83;20161;-75
2021/06/01 00:33:26;;;;;;;;;;;;;;;9.35;53.75;101259.94;1707754;83;20777;-75
2021/06/01 00:35:56;;;;;;;;;;;;;;;9.29;53.73;101255.64;1723684;82;20567;-75
2021/06/01 00:38:22;;;;;;;;;;;;;;;9.26;53.94;101254.35;1724130;83;20616;-75
2021/06/01 00:40:48;;;;;;;;;;;;;;;9.27;53.98;101253.49;1717097;83;20724;-75
2021/06/01 00:43:14;;;;;;;;;;;;;;;9.29;54.09;101253.49;1723854;83;20168;-75
2021/06/01 00:45:41;;;;;;;;;;;;;;;9.35;54.16;101248.75;1707693;83;20259;-75
2021/06/01 00:48:07;;;;;;;;;;;;;;;9.37;54.19;101249.15;1712780;83;20577;-75
2021/06/01 00:50:34;;;;;;;;;;;;;;;9.40;54.23;101240.11;1715495;83;20557;-75
2021/06/01 00:53:00;;;;;;;;;;;;;;;9.43;54.29;101238.82;1707525;83;20155;-75
2021/06/01 00:55:27;;;;;;;;;;;;;;;9.45;54.37;101242.26;1724002;83;20561;-75
2021/06/01 00:57:53;;;;;;;;;;;;;;;9.46;54.41;101238.81;1724609;83;20793;-75
2021/06/01 01:02:57;;;;;;;;;;;;;;;9.48;54.40;101246.56;1709132;83;20510;-75
2021/06/01 01:05:31;;;;;;;;;;;;;;;9.46;54.41;101246.99;1706543;83;20249;-75
2021/06/01 01:11:11;;;;;;;;;;;;;;;9.48;54.53;101238.81;1709034;83;20291;-75
2021/06/01 01:13:50;;;;;;;;;;;;;;;9.48;54.55;101242.25;1709419;82;20625;-75
2021/06/01 01:16:17;;;;;;;;;;;;;;;9.50;54.59;101230.64;1716926;83;20397;-75
2021/06/01 01:18:51;;;;;;;;;;;;;;;9.49;54.63;101223.75;1722528;83;20689;-75
2021/06/01 01:21:43;;;;;;;;;;;;;;;9.43;54.55;101223.34;1705432;83;20623;-75
2021/06/01 01:24:36;;;;;;;;;;;;;;;9.39;54.78;101219.47;1700469;83;20721;-75
2021/06/01 01:27:26;;;;;;;;;;;;;;;9.33;54.94;101218.22;1694489;82;20664;-75
2021/06/01 01:29:56;;;;;;;;;;;;;;;9.31;55.03;101216.07;1710882;81;20553;-75
2021/06/01 01:32:28;;;;;;;;;;;;;;;9.34;55.10;101218.22;1707352;83;21177;-75
2021/06/01 01:34:57;;;;;;;;;;;;;;;9.36;55.15;101216.46;1720485;82;20587;-75
2021/06/01 01:37:24;;;;;;;;;;;;;;;9.38;55.21;101221.62;1710383;82;20646;-75
2021/06/01 01:39:55;;;;;;;;;;;;;;;9.41;55.23;101221.19;1723134;83;21058;-75
2021/06/01 01:42:20;;;;;;;;;;;;;;;9.43;55.28;101218.60;1721271;83;20611;-75
2021/06/01 01:44:50;;;;;;;;;;;;;;;9.41;55.29;101219.89;1707169;82;20590;-75
2021/06/01 01:50:00;;;;;;;;;;;;;;;9.42;55.48;101211.72;1653803;84;20612;-75
2021/06/01 01:52:26;;;;;;;;;;;;;;;9.45;55.56;101202.69;1708755;83;20259;-75
2021/06/01 01:54:54;;;;;;;;;;;;;;;9.37;55.38;101207.86;1721236;83;20593;-75
2021/06/01 01:57:20;;;;;;;;;;;;;;;9.31;55.60;101201.45;1720947;83;20633;-75
2021/06/01 01:59:46;;;;;;;;;;;;;;;9.35;55.66;101193.27;1721677;83;20657;-75
2021/06/01 02:02:13;;;;;;;;;;;;;;;9.39;55.73;101189.78;1700753;82;20655;-75
2021/06/01 02:04:43;;;;;;;;;;;;;;;9.38;55.80;101182.91;1708704;83;20194;-75
2021/06/01 02:07:09;;;;;;;;;;;;;;;9.38;55.89;101182.91;1719196;83;20198;-75
2021/06/01 02:09:35;;;;;;;;;;;;;;;9.39;55.97;101181.61;1710151;83;20177;-75
2021/06/01 02:12:01;;;;;;;;;;;;;;;9.42;56.04;101187.20;1724139;83;20184;-75
2021/06/01 02:14:27;;;;;;;;;;;;;;;9.37;56.11;101187.21;1720842;81;20169;-75
2021/06/01 02:16:53;;;;;;;;;;;;;;;9.37;56.24;101185.92;1713082;83;20575;-75
2021/06/01 02:19:21;;;;;;;;;;;;;;;9.39;56.27;101178.17;1709377;83;20564;-75
2021/06/01 02:24:36;;;;;;;;;;;;;;;9.48;56.38;101170.41;1723769;83;20163;-75
2021/06/01 02:27:08;;;;;;;;;;;;;;;9.53;56.36;101160.93;1724021;83;20163;-75
2021/06/01 02:30:01;;;;;;;;;;;;;;;9.53;56.41;101172.12;1723572;83;20539;-75
2021/06/01 02:32:47;;;;;;;;;;;;;;;9.53;56.46;101173.41;1716071;83;20207;-75
2021/06/01 02:35:16;;;;;;;;;;;;;;;9.56;56.55;101178.56;1664190;86;20573;-75
2021/06/01 02:37:44;;;;;;;;;;;;;;;9.59;56.58;101175.11;1680892;84;20645;-75
2021/06/01 02:40:13;;;;;;;;;;;;;;;9.62;56.61;101180.27;1682846;84;20556;-75
2021/06/01 02:42:40;;;;;;;;;;;;;;;9.63;56.67;101177.69;1665795;84;20340;-75
2021/06/01 02:45:11;;;;;;;;;;;;;;;9.64;56.70;101182.41;1706955;83;20506;-74
2021/06/01 02:47:37;;;;;;;;;;;;;;;9.65;56.79;101176.38;1722381;83;20203;-74
2021/06/01 02:50:07;;;;;;;;;;;;;;;9.70;56.83;101178.95;1722181;83;20597;-74
2021/06/01 02:52:33;;;;;;;;;;;;;;;9.66;56.84;101173.38;1682861;83;20552;-74
2021/06/01 02:55:04;;;;;;;;;;;;;;;9.68;56.84;101174.23;1711771;83;20163;-75
2021/06/01 02:57:31;;;;;;;;;;;;;;;9.70;56.87;101178.52;1697043;83;20552;-75
2021/06/01 02:59:57;;;;;;;;;;;;;;;9.70;56.83;101178.52;1697561;83;20556;-75
2021/06/01 03:02:27;;;;;;;;;;;;;;;9.68;56.86;101176.37;1711592;81;20643;-75
2021/06/01 03:04:55;;;;;;;;;;;;;;;9.68;56.88;101183.27;1717518;83;20537;-74
2021/06/01 03:07:22;;;;;;;;;;;;;;;9.67;57.01;101182.41;1721856;81;20483;-74
2021/06/01 03:09:49;;;;;;;;;;;;;;;9.58;56.96;101188.45;1722369;83;20655;-74
2021/06/01 03:12:37;;;;;;;;;;;;;;;9.49;57.14;101188.48;1710378;82;20255;-74
2021/06/01 03:14:54;;;;;;;;;;;;;;;9.45;57.11;101194.94;1712363;83;20552;-74
2021/06/01 03:17:20;;;;;;;;;;;;;;;9.45;57.23;101191.92;1722547;83;20254;-74
2021/06/01 03:19:46;;;;;;;;;;;;;;;9.48;57.30;101193.20;1711719;83;20227;-74
2021/06/01 03:22:13;;;;;;;;;;;;;;;9.47;57.30;101188.91;1708755;83;20548;-74
2021/06/01 03:24:39;;;;;;;;;;;;;;;9.48;57.29;101190.63;1719298;83;20566;-74
2021/06/01 03:27:06;;;;;;;;;;;;;;;9.47;57.35;101191.49;1724323;82;20209;-74
2021/06/01 03:29:32;;;;;;;;;;;;;;;9.50;57.36;101190.63;1733782;82;20267;-74
2021/06/01 03:31:58;;;;;;;;;;;;;;;9.48;57.32;101188.05;1729520;82;20262;-74
2021/06/01 03:34:24;;;;;;;;;;;;;;;9.42;57.31;101184.62;1715463;82;20281;-74
2021/06/01 03:36:51;;;;;;;;;;;;;;;9.41;57.32;101181.61;1711862;82;20496;-74
2021/06/01 03:39:20;;;;;;;;;;;;;;;9.36;57.44;101184.20;1715212;82;20697;-74
2021/06/01 03:41:46;;;;;;;;;;;;;;;9.37;57.57;101183.34;1736219;82;20173;-74
2021/06/01 03:44:12;;;;;;;;;;;;;;;9.35;57.60;101182.52;1724381;82;20175;-74
2021/06/01 03:46:38;;;;;;;;;;;;;;;9.37;57.71;101188.93;1738887;82;20224;-74
2021/06/01 03:49:05;;;;;;;;;;;;;;;9.41;57.83;101188.92;1720765;82;20174;-74
2021/06/01 03:51:31;;;;;;;;;;;;;;;9.49;57.90;101194.07;1721628;81;20180;-74
2021/06/01 03:53:57;;;;;;;;;;;;;;;9.49;57.93;101197.52;1737054;82;20179;-74
2021/06/01 03:56:37;;;;;;;;;;;;;;;9.57;58.06;101198.78;1736074;82;20175;-74
2021/06/01 03:59:04;;;;;;;;;;;;;;;9.68;58.13;101197.03;1739806;82;20202;-74
2021/06/01 04:01:30;;;;;;;;;;;;;;;9.77;58.14;101202.17;1713746;82;20177;-74
2021/06/01 04:03:58;;;;;;;;;;;;;;;9.80;58.21;101198.72;1726446;82;20187;-74
2021/06/01 04:06:24;;;;;;;;;;;;;;;9.87;58.33;101194.82;1727111;82;20161;-74
2021/06/01 04:08:50;;;;;;;;;;;;;;;9.90;58.43;101190.05;1721213;82;20731;-74
2021/06/01 04:11:16;;;;;;;;;;;;;;;9.98;58.51;101192.59;1688698;84;20205;-74
2021/06/01 04:13:43;;;;;;;;;;;;;;;10.09;58.52;101201.16;1693311;83;20170;-74
2021/06/01 04:16:09;;;;;;;;;;;;;;;10.20;58.55;101191.66;1652743;85;20458;-74
2021/06/01 04:18:35;;;;;;;;;;;;;;;10.23;58.62;101195.09;1720047;83;20196;-74
2021/06/01 04:21:01;;;;;;;;;;;;;;;10.32;58.79;101193.33;1724710;81;20196;-75
2021/06/01 04:23:27;;;;;;;;;;;;;;;10.35;58.63;101199.34;1728252;81;20167;-75
2021/06/01 04:25:54;;;;;;;;;;;;;;;10.39;58.94;101201.05;1727157;81;20193;-75
2021/06/01 04:28:20;;;;;;;;;;;;;;;10.48;58.97;101203.54;1720168;83;20183;-75
2021/06/01 04:30:46;;;;;;;;;;;;;;;10.59;59.03;101204.77;1722135;83;20150;-75
2021/06/01 04:33:12;;;;;;;;;;;;;;;10.72;59.07;101216.75;1717515;82;20238;-75
2021/06/01 04:35:38;;;;;;;;;;;;;;;10.86;59.08;101226.56;1722328;83;20148;-75
2021/06/01 04:38:04;;;;;;;;;;;;;;;10.97;59.13;101230.34;1720941;81;20258;-75
2021/06/01 04:40:31;;;;;;;;;;;;;;;11.06;59.09;101240.61;1721041;83;20288;-75
2021/06/01 04:42:58;;;;;;;;;;;;;;;11.15;59.13;101241.84;1708534;82;20187;-75
2021/06/01 04:45:24;;;;;;;;;;;;;;;11.26;59.21;101241.31;1714259;81;20180;-75
2021/06/01 04:47:50;;;;;;;;;;;;;;;11.40;59.14;101237.30;1715686;83;20207;-75
2021/06/01 04:50:16;;;;;;;;;;;;;;;11.54;59.21;101227.64;1715584;83;20258;-75
2021/06/01 04:52:44;;;;;;;;;;;;;;;11.68;59.11;101234.41;1722167;82;20244;-75
2021/06/01 04:55:11;;;;;;;;;;;;;;;11.75;59.08;101237.36;1723105;82;20141;-75
2021/06/01 04:57:38;;;;;;;;;;;;;;;11.84;59.04;101247.66;1719821;83;20151;-75
2021/06/01 05:00:06;;;;;;;;;;;;;;;11.89;58.93;101253.66;1721355;83;20156;-75
2021/06/01 05:02:32;;;;;;;;;;;;;;;11.96;58.87;101237.59;1715171;83;20208;-75
2021/06/01 05:04:58;;;;;;;;;;;;;;;12.04;58.88;101243.52;1711831;83;20161;-75
2021/06/01 05:07:24;;;;;;;;;;;;;;;12.11;58.87;101243.86;1709064;83;20164;-75
2021/06/01 05:09:50;;;;;;;;;;;;;;;12.26;59.01;101241.94;1719932;83;20163;-75
2021/06/01 05:12:16;;;;;;;;;;;;;;;12.46;58.95;101239.53;1720037;82;20242;-75
2021/06/01 05:14:42;;;;;;;;;;;;;;;12.66;58.93;101237.92;1727080;81;20168;-74
2021/06/01 05:17:08;;;;;;;;;;;;;;;12.88;58.96;101232.83;1728905;81;20171;-74
2021/06/01 05:19:35;;;;;;;;;;;;;;;13.20;59.18;101236.20;1725410;81;20147;-74
2021/06/01 05:22:01;;;;;;;;;;;;;;;13.71;59.18;101233.54;1732177;81;20180;-74
2021/06/01 05:24:28;;;;;;;;;;;;;;;14.29;58.90;101221.94;1724038;81;20176;-75
2021/06/01 05:26:54;;;;;;;;;;;;;;;14.73;58.45;101236.13;1724225;81;20198;-75
2021/06/01 05:29:20;;;;;;;;;;;;;;;15.12;58.29;101225.17;1737938;81;20256;-75
2021/06/01 05:31:56;;;;;;;;;;;;;;;15.34;58.19;101221.58;1722776;83;20678;-75
2021/06/01 05:34:19;;;;;;;;;;;;;;;15.44;57.92;101208.72;1718316;83;20167;-75
2021/06/01 05:36:45;;;;;;;;;;;;;;;15.49;57.91;101191.66;1717791;81;20207;-74
2021/06/01 05:39:13;;;;;;;;;;;;;;;15.55;57.89;101199.31;1716162;81;20223;-74
2021/06/01 05:41:39;;;;;;;;;;;;;;;15.66;57.85;101191.20;1720023;81;20163;-74
2021/06/01 05:44:05;;;;;;;;;;;;;;;15.91;57.96;101191.37;1722025;81;20167;-74
2021/06/01 05:46:32;;;;;;;;;;;;;;;16.04;57.64;101175.77;1730762;81;20201;-74
2021/06/01 05:48:59;;;;;;;;;;;;;;;16.10;57.55;101171.67;1714698;81;20176;-74
2021/06/01 05:51:31;;;;;;;;;;;;;;;15.97;57.31;101163.80;1723508;81;20196;-75
2021/06/01 05:53:53;;;;;;;;;;;;;;;15.79;57.39;101173.02;1725940;81;20181;-75
2021/06/01 05:56:19;;;;;;;;;;;;;;;15.68;57.55;101172.02;1709684;81;20208;-75
2021/06/01 05:58:45;;;;;;;;;;;;;;;15.60;57.53;101176.58;1720890;81;20176;-75
2021/06/01 06:01:11;;;;;;;;;;;;;;;15.49;57.56;101184.70;1719695;81;20168;-75
2021/06/01 06:03:38;;;;;;;;;;;;;;;15.38;57.63;101180.22;1712806;82;20199;-75
2021/06/01 06:06:11;;;;;;;;;;;;;;;15.19;57.82;101180.29;1710640;82;20177;-74
2021/06/01 06:08:32;;;;;;;;;;;;;;;15.09;57.94;101179.67;1716328;82;20209;-74
2021/06/01 06:10:58;;;;;;;;;;;;;;;14.99;58.15;101185.17;1701522;82;20193;-74
2021/06/01 06:13:24;;;;;;;;;;;;;;;14.86;58.33;101176.81;1706219;82;20148;-74
2021/06/01 06:15:50;;;;;;;;;;;;;;;14.77;58.42;101170.08;1715238;82;20193;-74
2021/06/01 06:18:25;;;;;;;;;;;;;;;14.66;58.46;101160.38;1715729;83;20186;-74
2021/06/01 06:20:51;;;;;;;;;;;;;;;14.54;58.45;101139.43;1716516;83;20151;-74
2021/06/01 06:23:17;;;;;;;;;;;;;;;14.41;58.52;101100.69;1711562;83;20291;-74
2021/06/01 06:25:43;;;;;;;;;;;;;;;14.30;58.73;101087.94;1712098;82;20179;-74
2021/06/01 06:28:09;;;;;;;;;;;;;;;14.23;58.64;101076.81;1710344;83;20291;-74
2021/06/01 06:30:35;;;;;;;;;;;;;;;14.12;58.73;101048.91;1724527;82;20276;-74
2021/06/01 06:33:01;;;;;;;;;;;;;;;14.05;58.82;101034.34;1711283;81;20590;-74
2021/06/01 06:35:27;;;;;;;;;;;;;;;14.01;58.82;101035.77;1707521;81;20286;-74
2021/06/01 06:37:53;;;;;;;;;;;;;;;13.99;58.92;101043.61;1715055;83;20245;-74
2021/06/01 06:40:20;;;;;;;;;;;;;;;13.99;58.99;101037.11;1708632;82;20314;-74
2021/06/01 06:42:46;;;;;;;;;;;;;;;14.02;59.11;101040.94;1715766;83;20298;-74
2021/06/01 06:45:13;;;;;;;;;;;;;;;14.21;59.41;101047.83;1715347;82;20231;-74
2021/06/01 06:50:17;;;;;;;;;;;;;;;14.80;59.23;101046.34;1718655;82;20193;-74
2021/06/01 06:52:43;;;;;;;;;;;;;;;15.00;59.21;101048.41;1695117;83;20137;-74
2021/06/01 06:55:10;;;;;;;;;;;;;;;15.17;59.07;101049.22;1678712;84;20201;-75
2021/06/01 06:57:39;;;;;;;;;;;;;;;15.18;59.02;101030.09;1671959;84;20170;-74
2021/06/01 07:00:08;;;;;;;;;;;;;;;15.18;59.17;101022.27;1726123;82;20201;-74
2021/06/01 07:02:34;;;;;;;;;;;;;;;15.25;59.28;101025.11;1723882;81;20171;-74
2021/06/01 07:05:04;;;;;;;;;;;;;;;15.37;59.13;101027.81;1706557;81;20180;-74
2021/06/01 07:07:30;;;;;;;;;;;;;;;15.41;59.08;101021.61;1719389;83;20198;-74
2021/06/01 07:09:57;;;;;;;;;;;;;;;15.45;59.21;101033.66;1718941;83;20273;-74
2021/06/01 07:12:24;;;;;;;;;;;;;;;15.52;59.27;101030.83;1716017;83;20267;-74
2021/06/01 07:14:55;;;;;;;;;;;;;;;15.63;59.44;101024.44;1714782;82;20487;-74
2021/06/01 07:17:22;;;;;;;;;;;;;;;15.79;59.58;101025.69;1720945;81;20199;-74
2021/06/01 07:19:53;;;;;;;;;;;;;;;15.95;59.57;101026.91;1718789;82;20161;-74
2021/06/01 07:22:19;;;;;;;;;;;;;;;16.08;59.54;101028.69;1701720;81;20175;-74
2021/06/01 07:24:46;;;;;;;;;;;;;;;16.17;59.33;101026.60;1718138;81;20146;-74
2021/06/01 07:27:13;;;;;;;;;;;;;;;16.23;59.08;101010.75;1723976;81;20160;-74
2021/06/01 07:29:39;;;;;;;;;;;;;;;16.28;59.31;101013.20;1721883;81;20172;-74
2021/06/01 07:32:06;;;;;;;;;;;;;;;16.33;59.17;101003.47;1718651;81;20183;-74
2021/06/01 07:34:31;;;;;;;;;;;;;;;16.34;59.35;101006.48;1715157;81;20554;-74
2021/06/01 07:36:57;;;;;;;;;;;;;;;16.42;59.27;101011.44;1722118;81;20200;-74
2021/06/01 07:39:23;;;;;;;;;;;;;;;16.40;59.20;101027.61;1729616;81;20191;-74
2021/06/01 07:41:50;;;;;;;;;;;;;;;16.43;59.27;101028.36;1721810;81;20224;-74
2021/06/01 07:44:16;;;;;;;;;;;;;;;16.52;59.44;101033.27;1717786;81;21273;-74
2021/06/01 07:46:42;;;;;;;;;;;;;;;16.62;59.31;101034.27;1720813;82;20171;-75
2021/06/01 07:49:10;;;;;;;;;;;;;;;16.64;59.09;101041.56;1722401;81;20171;-75
2021/06/01 07:51:36;;;;;;;;;;;;;;;16.64;59.23;101040.26;1715110;81;20166;-75
2021/06/01 07:54:04;;;;;;;;;;;;;;;16.67;59.15;101043.65;1712605;81;20154;-74
2021/06/01 07:56:31;;;;;;;;;;;;;;;16.72;59.20;101050.87;1721637;82;20992;-74
2021/06/01 07:58:57;;;;;;;;;;;;;;;16.82;59.21;101047.49;1724649;81;20199;-74
2021/06/01 08:01:23;;;;;;;;;;;;;;;16.93;59.19;101049.28;1720896;81;20167;-74
2021/06/01 08:03:49;;;;;;;;;;;;;;;17.04;59.08;101051.52;1719781;82;20175;-74
2021/06/01 08:06:15;;;;;;;;;;;;;;;17.10;59.03;101046.92;1718873;82;20155;-74
2021/06/01 08:08:41;;;;;;;;;;;;;;;17.21;59.00;101042.12;1718159;83;20440;-74
2021/06/01 08:11:07;;;;;;;;;;;;;;;17.34;59.09;101048.22;1726730;82;20267;-74
2021/06/01 08:13:34;;;;;;;;;;;;;;;17.47;59.05;101049.01;1719541;82;20162;-74
2021/06/01 08:16:01;;;;;;;;;;;;;;;17.58;58.82;101059.06;1719454;82;20203;-74
2021/06/01 08:18:30;;;;;;;;;;;;;;;17.63;58.83;101058.44;1702927;83;20169;-74
2021/06/01 08:21:13;;;;;;;;;;;;;;;17.69;58.76;101062.58;1720041;82;20183;-74
2021/06/01 08:23:42;;;;;;;;;;;;;;;17.73;58.78;101051.95;1711510;82;20160;-75
2021/06/01 08:26:08;;;;;;;;;;;;;;;17.75;58.82;101047.51;1720242;82;20238;-75
2021/06/01 08:28:34;;;;;;;;;;;;;;;17.72;58.83;101051.55;1724734;82;20187;-75
2021/06/01 08:31:01;;;;;;;;;;;;;;;17.78;58.91;101047.84;1709458;82;20182;-75
2021/06/01 08:33:27;;;;;;;;;;;;;;;17.78;58.83;101045.23;1713154;82;20176;-74
2021/06/01 08:35:53;;;;;;;;;;;;;;;17.85;59.00;101050.63;1712428;83;20277;-75
2021/06/01 08:38:21;;;;;;;;;;;;;;;17.96;59.00;101051.51;1710398;82;20266;-75
2021/06/01 08:40:51;;;;;;;;;;;;;;;18.07;58.91;101059.33;1714329;82;20274;-75
2021/06/01 08:43:21;;;;;;;;;;;;;;;18.22;59.03;101054.37;1709982;82;20209;-75
2021/06/01 08:45:49;;;;;;;;;;;;;;;18.35;58.92;101052.50;1714102;82;20298;-74
2021/06/01 08:48:17;;;;;;;;;;;;;;;18.49;58.83;101048.85;1718529;82;20167;-74
2021/06/01 08:50:45;;;;;;;;;;;;;;;18.71;58.89;101041.44;1580780;81;9999985;-74
2021/06/01 08:53:11;;;;;;;;;;;;;;;18.88;58.80;101048.54;1717395;83;20227;-74
2021/06/01 08:55:37;;;;;;;;;;;;;;;19.08;58.78;101041.51;1720429;82;20144;-74
2021/06/01 08:58:03;;;;;;;;;;;;;;;19.30;58.82;101040.52;1705209;82;20177;-75
2021/06/01 09:00:29;;;;;;;;;;;;;;;19.43;58.67;101043.83;1713379;82;20231;-74
2021/06/01 09:03:10;;;;;;;;;;;;;;;19.65;58.56;101043.72;1711301;82;20258;-74
2021/06/01 09:05:41;;;;;;;;;;;;;;;19.77;58.51;101040.49;1708513;83;20164;-74
2021/06/01 09:08:10;;;;;;;;;;;;;;;19.96;58.49;101043.55;1716001;81;20179;-74
2021/06/01 09:10:46;;;;;;;;;;;;;;;20.10;58.14;101045.05;1720385;82;20207;-74
2021/06/01 09:13:24;;;;;;;;;;;;;;;20.16;58.13;101040.81;1708259;81;20178;-74
2021/06/01 09:20:04;;;;;;;;;;;;;;;20.22;58.19;101045.77;1705802;81;20201;-75
2021/06/01 09:21:14;;;;;;;;;;;;;;;20.40;58.08;101054.52;1723518;82;20168;-74
2021/06/01 09:23:56;;;;;;;;;;;;;;;20.54;57.82;101050.74;1722363;82;20167;-74
2021/06/01 09:27:14;;;;;;;;;;;;;;;20.57;57.91;101052.37;1711854;81;20203;-74
2021/06/01 09:29:35;;;;;;;;;;;;;;;20.61;57.76;101047.34;1717822;81;20203;-74
2021/06/01 09:32:10;;;;;;;;;;;;;;;20.71;57.77;101047.27;1723695;81;20168;-74
2021/06/01 09:34:39;;;;;;;;;;;;;;;20.82;57.70;101038.33;1714697;81;20994;-74
2021/06/01 09:37:24;;;;;;;;;;;;;;;20.93;57.67;101038.62;1713644;81;20188;-75
2021/06/01 09:40:12;;;;;;;;;;;;;;;20.98;57.58;101041.02;1722070;82;20196;-75
2021/06/01 09:42:47;;;;;;;;;;;;;;;21.09;57.54;101030.32;1712391;81;20184;-75
2021/06/01 09:45:17;;;;;;;;;;;;;;;21.12;57.58;101030.63;1616917;83;20413;-75
2021/06/01 09:47:59;;;;;;;;;;;;;;;21.22;57.54;101027.92;1580675;88;20220;-75
2021/06/01 09:50:51;;;;;;;;;;;;;;;21.28;57.50;101033.31;1601571;88;20176;-75
2021/06/01 09:53:06;;;;;;;;;;;;;;;21.36;57.36;101035.04;1597219;89;20197;-74
2021/06/01 09:55:36;;;;;;;;;;;;;;;21.44;57.27;101028.89;1599336;88;20216;-75
2021/06/01 09:58:05;;;;;;;;;;;;;;;21.47;57.33;101031.36;1545394;90;20165;-74
2021/06/01 10:00:32;;;;;;;;;;;;;;;21.59;57.29;101029.84;1534828;91;21080;-74
2021/06/01 10:03:04;;;;;;;;;;;;;;;21.83;57.45;101029.80;1537474;91;20165;-75
2021/06/01 10:05:36;;;;;;;;;;;;;;;22.01;57.06;101029.20;1595112;89;20181;-75
2021/06/01 10:08:18;;;;;;;;;;;;;;;22.17;56.97;101029.20;1595075;88;20583;-74
2021/06/01 10:10:58;;;;;;;;;;;;;;;22.24;56.66;101028.77;1599111;89;20177;-75
2021/06/01 10:13:27;;;;;;;;;;;;;;;22.21;56.68;101027.63;1582829;88;20196;-75
2021/06/01 10:15:55;;;;;;;;;;;;;;;22.26;56.66;101018.14;1585981;88;20217;-75
2021/06/01 10:18:23;;;;;;;;;;;;;;;22.26;56.49;101022.94;1581506;88;20367;-75
2021/06/01 10:20:51;;;;;;;;;;;;;;;22.32;56.82;101020.42;1594261;88;20211;-75
2021/06/01 10:23:27;;;;;;;;;;;;;;;22.31;56.52;101014.30;1603048;88;20563;-75
2021/06/01 10:25:49;;;;;;;;;;;;;;;22.27;56.30;101010.14;1583743;88;20217;-75
2021/06/01 10:28:23;;;;;;;;;;;;;;;22.37;56.35;101011.27;1596225;88;20243;-75
2021/06/01 10:30:43;;;;;;;;;;;;;;;22.44;56.29;101006.02;1600436;88;20300;-74
2021/06/01 10:33:11;;;;;;;;;;;;;;;22.46;56.21;101000.19;1606232;88;20313;-74
2021/06/01 10:35:44;;;;;;;;;;;;;;;22.52;56.06;100994.18;1603598;88;20288;-74
2021/06/01 10:50:30;;;;;;;;;;;;;;;22.74;55.57;100991.95;1584384;88;20284;-75
2021/06/01 10:53:19;;;;;;;;;;;;;;;22.78;55.33;100981.16;1586912;88;20602;-74
2021/06/01 10:55:56;;;;;;;;;;;;;;;22.85;55.25;100982.95;1593082;88;20279;-74
2021/06/01 10:58:30;;;;;;;;;;;;;;;22.90;54.93;100986.13;1584828;89;20229;-74
2021/06/01 11:07:01;;;;;;;;;;;;;;;22.78;54.49;100972.37;1612644;88;20200;-74
2021/06/01 11:09:33;;;;;;;;;;;;;;;22.77;54.44;100975.48;1614855;88;20203;-74
2021/06/01 11:12:26;;;;;;;;;;;;;;;22.70;54.54;100968.03;1617935;86;20188;-74
2021/06/01 11:14:57;;;;;;;;;;;;;;;22.64;54.54;100967.94;1612509;87;20647;-74
2021/06/01 11:17:34;;;;;;;;;;;;;;;22.65;54.54;100975.38;1619735;87;20240;-75
2021/06/01 11:20:38;;;;;;;;;;;;;;;22.60;54.35;100969.06;1564971;88;20185;-75
2021/06/01 11:35:57;;;;;;;;;;;;;;;22.78;53.02;100969.73;1617461;87;20603;-74
2021/06/01 11:38:39;;;;;;;;;;;;;;;22.79;53.00;100967.51;1618014;87;20192;-74
2021/06/01 11:43:34;;;;;;;;;;;;;;;22.88;52.74;100956.83;1606522;88;20244;-74
2021/06/01 11:46:14;;;;;;;;;;;;;;;22.97;52.81;100958.91;1610200;87;20218;-74
2021/06/01 11:51:21;;;;;;;;;;;;;;;23.17;52.60;100955.02;1604644;87;20148;-75
2021/06/01 11:53:55;;;;;;;;;;;;;;;23.08;52.36;100947.22;1611732;88;20194;-75
2021/06/01 11:56:41;;;;;;;;;;;;;;;23.06;52.34;100950.42;1606016;88;20224;-75
2021/06/01 12:02:07;;;;;;;;;;;;;;;23.11;52.27;100952.30;1602720;87;20270;-75
2021/06/01 12:18:59;;;;;;;;;;;;;;;23.16;51.25;100935.70;1592058;88;20211;-74
2021/06/01 12:21:33;;;;;;;;;;;;;;;23.27;50.89;100935.88;1599937;89;20255;-74
2021/06/01 12:24:05;;;;;;;;;;;;;;;23.30;50.77;100940.11;1590930;89;20323;-74
2021/06/01 12:26:41;;;;;;;;;;;;;;;23.30;50.83;100940.11;1589381;88;20323;-74
2021/06/01 12:32:12;;;;;;;;;;;;;;;23.49;50.74;100936.64;1590055;89;20520;-74
2021/06/01 13:05:34;;;;;;;;;;;;;;;23.76;49.33;100926.11;1592160;88;20300;-75
2021/06/01 13:19:25;;;;;;;;;;;;;;;23.61;48.97;100929.28;1591337;89;20289;-74
2021/06/01 13:21:50;;;;;;;;;;;;;;;23.52;48.85;100932.48;1576531;88;20588;-75
2021/06/01 13:38:33;;;;;;;;;;;;;;;23.40;48.20;100928.84;1597195;89;20591;-75
2021/06/01 13:46:43;;;;;;;;;;;;;;;23.27;48.34;100917.88;1590910;89;20649;-75
2021/06/01 13:49:23;;;;;;;;;;;;;;;23.21;48.15;100919.11;1597628;89;20619;-75
2021/06/01 13:56:59;;;;;;;;;;;;;;;23.15;47.73;100909.42;1597521;88;20336;-76
2021/06/01 13:59:49;;;;;;;;;;;;;;;23.10;47.67;100913.67;1587647;88;20562;-75
2021/06/01 14:02:13;;;;;;;;;;;;;;;23.05;47.75;100904.73;1583908;88;20321;-75
2021/06/01 14:10:43;;;;;;;;;;;;;;;22.94;47.66;100905.88;1590143;88;20228;-75
2021/06/01 14:19:24;;;;;;;;;;;;;;;22.87;47.55;100901.96;1592234;88;20622;-75
2021/06/01 14:29:46;;;;;;;;;;;;;;;22.80;47.44;100896.69;1587591;88;20244;-75
2021/06/01 15:07:20;;;;;;;;;;;;;;;22.18;47.22;100876.80;1660788;84;20602;-75
2021/06/01 15:11:17;;;;;;;;;;;;;;;22.08;47.09;100879.14;1687017;84;20512;-75
2021/06/01 15:48:52;;;;;;;;;;;;;;;21.47;47.93;100872.17;1617528;87;20178;-75
2021/06/01 15:51:06;;;;;;;;;;;;;;;21.45;48.04;100875.36;1619135;87;20665;-75
2021/06/01 17:04:55;;;;;;;;;;;;;;;19.52;51.72;100904.02;1668358;85;20188;-76
2021/06/01 17:13:06;;;;;;;;;;;;;;;19.40;52.26;100907.59;1661974;84;20556;-76
2021/06/01 17:15:35;;;;;;;;;;;;;;;19.36;52.48;100913.05;1663625;84;20200;-76
2021/06/01 17:18:12;;;;;;;;;;;;;;;19.31;52.50;100911.95;1682397;83;20186;-76
2021/06/01 17:36:36;;;;;;;;;;;;;;;19.06;53.17;100931.09;1651850;85;20256;-76
2021/06/01 17:39:05;;;;;;;;;;;;;;;19.02;53.31;100929.07;1662123;85;20545;-76
2021/06/01 17:41:33;;;;;;;;;;;;;;;18.99;53.50;100935.77;1655518;85;20254;-76
2021/06/01 17:44:04;;;;;;;;;;;;;;;18.98;53.60;100929.28;1682807;83;20247;-76
2021/06/01 17:46:35;;;;;;;;;;;;;;;19.01;53.67;100926.52;1683665;83;20190;-76
2021/06/01 17:49:04;;;;;;;;;;;;;;;18.99;53.85;100930.98;1671830;85;20194;-76
2021/06/01 17:51:32;;;;;;;;;;;;;;;19.01;54.04;100923.90;1662531;84;20189;-76
2021/06/01 17:54:00;;;;;;;;;;;;;;;19.06;53.99;100928.02;1656050;85;20176;-76
2021/06/01 17:56:28;;;;;;;;;;;;;;;19.10;54.07;100926.10;1656847;85;20182;-76
2021/06/01 17:59:02;;;;;;;;;;;;;;;19.16;54.19;100933.68;1679069;85;20156;-76
2021/06/01 18:01:30;;;;;;;;;;;;;;;19.17;54.16;100935.37;1690494;83;20182;-76
2021/06/01 18:04:00;;;;;;;;;;;;;;;19.19;54.34;100936.16;1680359;83;20247;-76
2021/06/01 18:06:36;;;;;;;;;;;;;;;19.22;54.34;100929.47;1658468;84;20159;-76
2021/06/01 18:09:09;;;;;;;;;;;;;;;19.25;54.44;100935.84;1639935;85;20236;-76
2021/06/01 19:25:41;;;;;;;;;;;;;;;17.49;56.47;101009.73;1622041;87;20174;-77
2021/06/01 19:52:09;;;;;;;;;;;;;;;16.84;57.40;101025.64;1774396;79;20096;-74
2021/06/01 19:54:50;;;;;;;;;;;;;;;16.76;57.49;101034.19;1772312;79;20135;-74